createdAt,value
2019-05-23T00:04:29.737Z,93.40
2019-05-23T00:10:24.621Z,93.60
2019-05-23T00:13:14.669Z,93.50
2019-05-23T00:15:55.178Z,93.50
2019-05-23T00:18:36.771Z,93.50
2019-05-23T00:21:18.858Z,93.60
2019-05-23T00:23:59.538Z,93.80
2019-05-23T00:26:41.360Z,93.90
2019-05-23T00:29:22.085Z,93.90
2019-05-23T00:32:10.063Z,94.00
2019-05-23T00:37:45.634Z,94.00
2019-05-23T00:40:25.810Z,94.10
2019-05-23T00:43:06.554Z,94.30
2019-05-23T00:45:46.488Z,94.30
2019-05-23T00:48:26.687Z,94.30
2019-05-23T00:51:06.713Z,94.20
2019-05-23T00:53:46.789Z,94.20
2019-05-23T00:56:26.867Z,94.30
2019-05-23T00:59:07.555Z,94.20
2019-05-23T01:01:48.640Z,94.20
2019-05-23T01:04:28.373Z,94.10
2019-05-23T01:07:09.189Z,94.10
2019-05-23T01:09:49.494Z,94.00
2019-05-23T01:12:30.516Z,94.20
2019-05-23T01:15:11.670Z,94.20
2019-05-23T01:17:51.698Z,94.30
2019-05-23T01:23:38.878Z,94.10
2019-05-23T01:26:19.684Z,94.00
2019-05-23T01:28:59.697Z,93.90
2019-05-23T01:31:42.265Z,94.00
2019-05-23T01:34:24.036Z,94.10
2019-05-23T01:37:05.534Z,94.10
2019-05-23T01:39:45.514Z,94.50
2019-05-23T01:42:26.252Z,94.40
2019-05-23T01:45:07.346Z,94.50
2019-05-23T01:47:48.698Z,94.50
2019-05-23T01:50:30.194Z,94.80
2019-05-23T01:53:11.244Z,94.90
2019-05-23T01:55:38.962Z,95.20
2019-05-23T02:04:09.471Z,94.40
2019-05-23T02:06:50.193Z,94.30
2019-05-23T02:09:30.718Z,94.40
2019-05-23T02:12:11.299Z,94.50
2019-05-23T02:14:51.546Z,94.50
2019-05-23T02:17:33.063Z,94.40
2019-05-23T02:20:13.574Z,94.30
2019-05-23T02:28:37.685Z,94.20
2019-05-23T02:31:18.524Z,94.20
2019-05-23T02:33:59.422Z,94.40
2019-05-23T02:36:41.651Z,94.40
2019-05-23T02:39:41.442Z,94.40
2019-05-23T02:42:26.940Z,94.30
2019-05-23T02:48:12.008Z,94.00
2019-05-23T02:50:52.569Z,94.00
2019-05-23T02:53:32.966Z,94.10
2019-05-23T02:56:12.859Z,94.00
2019-05-23T02:58:52.962Z,94.00
2019-05-23T03:01:52.122Z,94.10
2019-05-23T03:04:34.479Z,94.00
2019-05-23T03:07:16.358Z,93.90
2019-05-23T03:10:25.041Z,93.70
2019-05-23T03:16:14.686Z,93.70
2019-05-23T03:18:55.313Z,93.90
2019-05-23T03:21:36.969Z,93.70
2019-05-23T03:24:16.718Z,93.60
2019-05-23T03:26:57.675Z,93.60
2019-05-23T03:29:26.618Z,93.80
2019-05-23T03:32:03.219Z,93.80
2019-05-23T03:34:33.966Z,93.70
2019-05-23T03:37:06.430Z,93.80
2019-05-23T03:39:34.166Z,93.60
2019-05-23T03:42:01.841Z,93.60
2019-05-23T03:44:48.986Z,93.00
2019-05-23T03:47:31.024Z,93.10
2019-05-23T03:50:11.839Z,93.00
2019-05-23T03:53:00.645Z,92.80
2019-05-23T03:55:47.887Z,92.80
2019-05-23T03:58:29.129Z,92.90
2019-05-23T04:01:11.165Z,92.50
2019-05-23T04:03:52.173Z,92.90
2019-05-23T04:06:32.386Z,93.40
2019-05-23T04:09:13.567Z,93.00
2019-05-23T04:11:53.924Z,92.90
2019-05-23T04:14:33.907Z,93.00
2019-05-23T04:17:14.519Z,93.00
2019-05-23T04:19:54.292Z,93.30
2019-05-23T04:22:34.339Z,92.80
2019-05-23T04:25:14.563Z,93.00
2019-05-23T04:27:42.568Z,93.10
2019-05-23T04:30:29.577Z,93.30
2019-05-23T04:35:55.690Z,93.00
2019-05-23T04:38:42.782Z,92.90
2019-05-23T04:41:30.017Z,93.00
2019-05-23T04:44:10.271Z,92.90
2019-05-23T04:46:50.116Z,93.00
2019-05-23T04:49:30.362Z,93.00
2019-05-23T04:52:10.747Z,93.10
2019-05-23T04:54:50.692Z,92.70
2019-05-23T04:57:31.086Z,92.30
2019-05-23T05:00:11.345Z,91.80
2019-05-23T05:02:51.774Z,91.30
2019-05-23T05:05:31.919Z,91.50
2019-05-23T05:08:11.879Z,91.40
2019-05-23T05:10:51.931Z,91.60
2019-05-23T05:13:31.848Z,91.50
2019-05-23T05:16:11.843Z,91.00
2019-05-23T05:18:55.078Z,90.90
2019-05-23T05:21:34.209Z,91.00
2019-05-23T05:24:14.350Z,91.10
2019-05-23T05:26:42.149Z,91.00
2019-05-23T05:32:16.340Z,90.60
2019-05-23T05:34:56.013Z,91.00
2019-05-23T05:37:36.284Z,91.20
2019-05-23T05:40:16.635Z,91.60
2019-05-23T05:45:53.266Z,92.00
2019-05-23T05:48:33.639Z,92.70
2019-05-23T05:51:13.870Z,93.10
2019-05-23T05:53:54.301Z,93.30
2019-05-23T05:56:34.589Z,93.60
2019-05-23T05:59:14.924Z,93.60
2019-05-23T06:01:55.458Z,92.30
2019-05-23T06:04:35.218Z,91.40
2019-05-23T06:07:34.642Z,88.10
2019-05-23T06:10:16.502Z,89.40
2019-05-23T06:12:56.797Z,86.10
2019-05-23T06:15:37.254Z,83.40
2019-05-23T06:18:17.154Z,82.50
2019-05-23T06:20:57.067Z,82.90
2019-05-23T06:23:37.343Z,83.30
2019-05-23T06:26:17.580Z,83.60
2019-05-23T06:28:58.595Z,79.70
2019-05-23T06:31:38.948Z,79.70
2019-05-23T06:34:19.211Z,78.50
2019-05-23T06:37:00.102Z,78.40
2019-05-23T06:39:40.099Z,76.60
2019-05-23T06:42:19.978Z,79.00
2019-05-23T06:44:59.772Z,78.50
2019-05-23T06:47:39.833Z,78.30
2019-05-23T06:50:21.043Z,77.00
2019-05-23T06:53:01.292Z,74.30
2019-05-23T06:55:41.326Z,72.40
2019-05-23T06:58:22.000Z,66.80
2019-05-23T07:01:03.461Z,67.20
2019-05-23T07:03:44.188Z,66.80
2019-05-23T07:06:24.104Z,66.30
2019-05-23T07:09:04.114Z,63.70
2019-05-23T07:11:44.374Z,62.70
2019-05-23T07:14:24.582Z,61.30
2019-05-23T07:17:05.266Z,59.70
2019-05-23T07:19:45.540Z,59.30
2019-05-23T07:22:25.477Z,59.00
2019-05-23T07:25:05.579Z,57.50
2019-05-23T07:27:45.893Z,56.00
2019-05-23T07:30:25.688Z,56.50
2019-05-23T07:33:05.794Z,55.70
2019-05-23T07:35:46.023Z,56.20
2019-05-23T07:38:26.085Z,53.50
2019-05-23T07:41:06.590Z,52.40
2019-05-23T07:43:46.769Z,54.50
2019-05-23T07:46:27.317Z,55.10
2019-05-23T07:49:07.763Z,54.20
2019-05-23T07:51:47.634Z,53.30
2019-05-23T07:57:26.665Z,56.10
2019-05-23T08:00:09.475Z,55.70
2019-05-23T08:02:50.687Z,53.70
2019-05-23T08:05:31.562Z,55.00
2019-05-23T08:08:12.059Z,56.10
2019-05-23T08:10:52.042Z,55.40
2019-05-23T08:13:32.119Z,54.40
2019-05-23T08:16:16.190Z,54.20
2019-05-23T08:18:56.196Z,56.40
2019-05-23T08:21:36.314Z,56.60
2019-05-23T08:24:17.554Z,57.00
2019-05-23T08:26:58.557Z,55.60
2019-05-23T08:32:21.515Z,56.30
2019-05-23T08:35:08.773Z,55.80
2019-05-23T08:37:49.431Z,55.70
2019-05-23T08:40:29.443Z,55.00
2019-05-23T08:43:09.351Z,53.10
2019-05-23T08:45:49.447Z,52.80
2019-05-23T08:48:29.543Z,52.60
2019-05-23T08:51:12.915Z,51.20
2019-05-23T08:53:53.026Z,50.90
2019-05-23T08:56:33.197Z,50.80
2019-05-23T08:59:13.958Z,48.50
2019-05-23T09:01:53.815Z,49.40
2019-05-23T09:04:33.820Z,50.20
2019-05-23T09:07:14.163Z,49.60
2019-05-23T09:09:56.718Z,48.30
2019-05-23T09:12:37.332Z,48.00
2019-05-23T09:15:17.331Z,47.10
2019-05-23T09:17:52.929Z,47.70
2019-05-23T09:20:34.212Z,48.80
2019-05-23T09:23:14.687Z,48.70
2019-05-23T09:25:55.062Z,45.90
2019-05-23T09:28:35.246Z,47.90
2019-05-23T09:31:15.798Z,45.70
2019-05-23T09:36:38.128Z,46.10
2019-05-23T09:39:20.201Z,46.60
2019-05-23T09:42:00.548Z,44.30
2019-05-23T09:44:40.944Z,45.30
2019-05-23T09:47:21.005Z,47.80
2019-05-23T09:50:01.568Z,47.70
2019-05-23T09:52:41.718Z,45.40
2019-05-23T09:55:22.130Z,44.10
2019-05-23T09:58:02.005Z,45.70
2019-05-23T10:00:41.988Z,45.50
2019-05-23T10:03:22.327Z,45.40
2019-05-23T10:06:02.562Z,46.50
2019-05-23T10:14:53.736Z,46.80
2019-05-23T10:17:33.547Z,47.60
2019-05-23T10:20:13.598Z,46.80
2019-05-23T10:22:53.800Z,49.00
2019-05-23T10:25:36.261Z,48.70
2019-05-23T10:28:16.977Z,47.60
2019-05-23T10:30:57.274Z,48.80
2019-05-23T10:33:37.406Z,47.40
2019-05-23T10:36:17.327Z,46.40
2019-05-23T10:38:57.286Z,47.50
2019-05-23T10:41:24.877Z,47.10
2019-05-23T10:44:11.953Z,46.60
2019-05-23T10:46:58.942Z,47.20
2019-05-23T10:49:39.002Z,46.40
2019-05-23T10:52:06.622Z,44.90
2019-05-23T10:54:53.850Z,48.10
2019-05-23T10:57:41.371Z,45.70
2019-05-23T11:00:29.705Z,46.00
2019-05-23T11:03:10.426Z,47.00
2019-05-23T11:05:50.904Z,45.00
2019-05-23T11:08:30.884Z,46.50
2019-05-23T11:11:14.327Z,46.40
2019-05-23T11:13:53.345Z,45.30
2019-05-23T11:16:34.658Z,45.60
2019-05-23T11:19:15.250Z,44.50
2019-05-23T11:21:55.165Z,43.50
2019-05-23T11:24:35.355Z,44.00
2019-05-23T11:27:15.426Z,43.60
2019-05-23T11:29:55.309Z,44.60
2019-05-23T11:32:35.426Z,44.60
2019-05-23T11:35:15.585Z,44.20
2019-05-23T11:37:55.760Z,43.30
2019-05-23T11:40:35.566Z,44.20
2019-05-23T11:43:15.758Z,41.40
2019-05-23T11:49:04.670Z,42.50
2019-05-23T11:51:45.494Z,41.90
2019-05-23T11:54:25.336Z,41.30
2019-05-23T11:57:05.466Z,40.20
2019-05-23T11:59:45.868Z,42.00
2019-05-23T12:05:37.067Z,40.50
2019-05-23T12:08:16.821Z,40.30
2019-05-23T12:10:57.114Z,40.70
2019-05-23T12:13:37.245Z,42.10
2019-05-23T12:16:17.258Z,41.30
2019-05-23T12:18:57.571Z,39.50
2019-05-23T12:21:37.653Z,39.60
2019-05-23T12:24:17.655Z,40.00
2019-05-23T12:26:58.020Z,40.80
2019-05-23T12:29:38.221Z,39.20
2019-05-23T12:32:18.318Z,42.00
2019-05-23T12:35:10.388Z,41.20
2019-05-23T12:37:40.225Z,39.60
2019-05-23T12:40:20.517Z,40.90
2019-05-23T12:43:00.749Z,40.90
2019-05-23T12:45:40.778Z,40.90
2019-05-23T12:51:19.965Z,38.90
2019-05-23T12:53:47.586Z,38.80
2019-05-23T12:59:13.973Z,41.10
2019-05-23T13:02:01.407Z,40.50
2019-05-23T13:04:41.758Z,39.70
2019-05-23T13:07:35.594Z,40.40
2019-05-23T13:10:05.124Z,39.50
2019-05-23T13:12:45.421Z,39.70
2019-05-23T13:15:25.550Z,40.90
2019-05-23T13:17:53.251Z,41.40
2019-05-23T13:23:34.873Z,41.50
2019-05-23T13:26:15.191Z,40.20
2019-05-23T13:31:25.017Z,41.80
2019-05-23T13:34:12.030Z,41.30
2019-05-23T13:36:50.201Z,41.20
2019-05-23T13:42:18.951Z,42.40
2019-05-23T13:44:58.970Z,43.80
2019-05-23T13:47:39.163Z,44.10
2019-05-23T13:50:19.563Z,43.20
2019-05-23T13:52:59.713Z,44.40
2019-05-23T13:55:39.604Z,42.20
2019-05-23T13:58:19.774Z,42.90
2019-05-23T14:00:59.951Z,41.90
2019-05-23T14:03:40.083Z,42.40
2019-05-23T14:06:20.154Z,43.40
2019-05-23T14:09:00.222Z,44.10
2019-05-23T14:11:40.297Z,43.40
2019-05-23T14:14:20.569Z,41.40
2019-05-23T14:19:58.090Z,42.10
2019-05-23T14:22:42.639Z,41.40
2019-05-23T14:25:22.674Z,40.90
2019-05-23T14:28:06.033Z,41.30
2019-05-23T14:31:05.290Z,43.40
2019-05-23T14:33:57.892Z,41.70
2019-05-23T14:36:57.039Z,42.70
2019-05-23T14:39:43.482Z,42.70
2019-05-23T14:42:43.401Z,42.50
2019-05-23T14:45:42.692Z,41.20
2019-05-23T14:48:41.878Z,40.40
2019-05-23T14:51:41.188Z,40.80
2019-05-23T14:54:40.242Z,40.50
2019-05-23T14:57:21.491Z,41.20
2019-05-23T15:00:01.313Z,40.50
2019-05-23T15:02:41.140Z,39.40
2019-05-23T15:05:21.106Z,38.50
2019-05-23T15:08:01.523Z,39.40
2019-05-23T15:10:29.394Z,39.50
2019-05-23T15:13:16.605Z,39.30
2019-05-23T15:16:04.015Z,40.10
2019-05-23T15:18:44.303Z,40.70
2019-05-23T15:21:25.409Z,39.90
2019-05-23T15:24:05.878Z,40.30
2019-05-23T15:26:46.141Z,39.80
2019-05-23T15:29:29.210Z,40.80
2019-05-23T15:32:08.441Z,41.40
2019-05-23T15:34:48.507Z,39.40
2019-05-23T15:40:12.566Z,40.10
2019-05-23T15:42:59.588Z,40.70
2019-05-23T15:45:40.010Z,42.10
2019-05-23T15:48:20.809Z,42.20
2019-05-23T15:51:01.014Z,42.30
2019-05-23T15:56:56.341Z,40.90
2019-05-23T15:59:46.949Z,41.40
2019-05-23T16:02:49.359Z,42.70
2019-05-23T16:05:29.090Z,41.90
2019-05-23T16:08:09.120Z,42.90
2019-05-23T16:10:49.346Z,41.50
2019-05-23T16:13:29.163Z,42.70
2019-05-23T16:16:09.231Z,43.00
2019-05-23T16:18:49.717Z,42.20
2019-05-23T16:21:30.175Z,43.80
2019-05-23T16:24:10.368Z,43.40
2019-05-23T16:26:50.829Z,43.10
2019-05-23T16:29:32.727Z,43.50
2019-05-23T16:32:13.171Z,44.10
2019-05-23T16:34:53.107Z,43.90
2019-05-23T16:37:33.110Z,44.50
2019-05-23T16:40:13.422Z,43.90
2019-05-23T16:42:53.373Z,43.80
2019-05-23T16:45:34.195Z,44.00
2019-05-23T16:48:14.737Z,44.20
2019-05-23T16:50:54.742Z,44.40
2019-05-23T16:53:36.194Z,45.10
2019-05-23T17:02:36.955Z,44.90
2019-05-23T17:05:36.963Z,45.00
2019-05-23T17:08:36.169Z,44.40
2019-05-23T17:11:37.180Z,44.80
2019-05-23T17:18:01.427Z,45.60
2019-05-23T17:20:55.276Z,46.20
2019-05-23T17:26:48.910Z,45.80
2019-05-23T17:32:38.111Z,46.60
2019-05-23T17:35:18.141Z,46.30
2019-05-23T17:37:58.193Z,47.00
2019-05-23T17:40:41.811Z,46.30
2019-05-23T17:43:21.723Z,46.20
2019-05-23T17:46:02.430Z,46.80
2019-05-23T17:48:42.697Z,47.10
2019-05-23T17:51:23.028Z,47.20
2019-05-23T17:54:02.913Z,47.50
2019-05-23T17:56:43.060Z,47.20
2019-05-23T17:59:23.109Z,46.70
2019-05-23T18:02:04.198Z,46.70
2019-05-23T18:04:32.477Z,47.30
2019-05-23T18:07:19.571Z,47.10
2019-05-23T18:10:00.091Z,46.90
2019-05-23T18:12:40.707Z,47.10
2019-05-23T18:15:21.338Z,46.70
2019-05-23T18:18:01.589Z,47.40
2019-05-23T18:20:42.382Z,47.70
2019-05-23T18:23:22.797Z,47.00
2019-05-23T18:29:01.880Z,48.00
2019-05-23T18:31:43.406Z,47.70
2019-05-23T18:34:23.357Z,48.50
2019-05-23T18:37:04.023Z,48.10
2019-05-23T18:39:44.661Z,48.40
2019-05-23T18:42:25.943Z,48.70
2019-05-23T18:45:06.967Z,49.80
2019-05-23T18:47:47.705Z,49.40
2019-05-23T18:50:28.388Z,49.80
2019-05-23T18:53:09.203Z,50.10
2019-05-23T18:55:50.207Z,49.90
2019-05-23T18:58:30.202Z,51.10
2019-05-23T19:01:14.935Z,50.80
2019-05-23T19:03:42.946Z,51.10
2019-05-23T19:06:10.650Z,52.90
2019-05-23T19:08:38.325Z,55.40
2019-05-23T19:11:19.405Z,56.10
2019-05-23T19:13:35.794Z,57.30
2019-05-23T19:16:22.861Z,58.80
2019-05-23T19:19:03.145Z,59.90
2019-05-23T19:21:42.970Z,60.80
2019-05-23T19:24:23.326Z,61.80
2019-05-23T19:27:03.679Z,62.40
2019-05-23T19:29:44.177Z,63.60
2019-05-23T19:32:24.562Z,64.80
2019-05-23T19:35:06.047Z,66.00
2019-05-23T19:37:46.734Z,65.40
2019-05-23T19:40:27.147Z,66.10
2019-05-23T19:46:19.770Z,67.30
2019-05-23T19:48:59.828Z,68.10
2019-05-23T19:51:40.069Z,69.00
2019-05-23T19:54:20.457Z,69.50
2019-05-23T19:57:00.216Z,70.00
2019-05-23T19:59:40.558Z,70.70
2019-05-23T20:02:40.022Z,70.10
2019-05-23T20:05:25.050Z,70.20
2019-05-23T20:07:52.738Z,71.40
2019-05-23T20:10:33.415Z,72.20
2019-05-23T20:13:17.428Z,71.40
2019-05-23T20:15:56.126Z,71.40
2019-05-23T20:18:36.451Z,72.20
2019-05-23T20:21:16.732Z,72.20
2019-05-23T20:23:58.342Z,72.10
2019-05-23T20:26:38.256Z,72.80
2019-05-23T20:29:18.496Z,73.10
2019-05-23T20:31:58.745Z,73.50
2019-05-23T20:34:38.504Z,73.20
2019-05-23T20:37:19.759Z,73.20
2019-05-23T20:52:10.570Z,74.70
2019-05-23T20:54:38.176Z,72.50
2019-05-23T20:57:06.520Z,72.90
2019-05-23T20:59:34.097Z,73.20
2019-05-23T21:02:02.017Z,74.10
2019-05-23T21:04:29.607Z,74.90
2019-05-23T21:06:57.197Z,75.30
2019-05-23T21:09:25.239Z,75.70
2019-05-23T21:11:52.882Z,77.20
2019-05-23T21:14:20.668Z,76.80
2019-05-23T21:16:48.472Z,76.90
2019-05-23T21:19:16.226Z,76.90
2019-05-23T21:21:43.934Z,76.80
2019-05-23T21:24:11.656Z,77.10
2019-05-23T21:26:39.255Z,76.80
2019-05-23T21:29:07.018Z,76.40
2019-05-23T21:31:34.637Z,76.90
2019-05-23T21:34:02.232Z,77.20
2019-05-23T21:36:30.201Z,76.90
2019-05-23T21:38:57.836Z,77.40
2019-05-23T21:41:25.486Z,77.30
2019-05-23T21:43:54.897Z,77.40
2019-05-23T21:46:22.514Z,77.50
2019-05-23T21:48:50.130Z,77.60
2019-05-23T21:51:17.884Z,77.80
2019-05-23T21:53:45.527Z,77.80
2019-05-23T21:56:13.371Z,78.40
2019-05-23T21:58:41.071Z,78.80
2019-05-23T22:01:31.101Z,79.00
2019-05-23T22:04:13.398Z,78.80
2019-05-23T22:06:43.574Z,79.20
2019-05-23T22:09:12.716Z,79.30
2019-05-23T22:11:40.330Z,79.50
2019-05-23T22:14:07.966Z,79.40
2019-05-23T22:16:36.120Z,79.10
2019-05-23T22:19:05.754Z,79.20
2019-05-23T22:21:33.761Z,79.20
2019-05-23T22:24:01.759Z,79.90
2019-05-23T22:26:29.515Z,80.00
2019-05-23T22:28:57.825Z,80.20
2019-05-23T22:31:26.129Z,80.60
2019-05-23T22:33:59.637Z,80.80
2019-05-23T22:36:28.129Z,80.90
2019-05-23T22:38:55.700Z,80.80
2019-05-23T22:41:23.284Z,80.90
2019-05-23T22:43:50.916Z,80.80
2019-05-23T22:46:21.043Z,81.20
2019-05-23T22:48:48.702Z,81.30
2019-05-23T22:51:16.385Z,81.30
2019-05-23T22:53:44.032Z,81.00
2019-05-23T22:56:11.799Z,81.40
2019-05-23T22:58:39.421Z,82.00
2019-05-23T23:01:07.118Z,81.00
2019-05-23T23:03:34.712Z,81.10
2019-05-23T23:06:02.413Z,81.10
2019-05-23T23:08:31.773Z,81.00
2019-05-23T23:10:59.349Z,81.00
2019-05-23T23:13:38.039Z,81.00
2019-05-23T23:15:57.054Z,81.00
2019-05-23T23:18:24.641Z,80.90
2019-05-23T23:20:52.465Z,81.10
2019-05-23T23:23:20.094Z,81.10
2019-05-23T23:25:47.717Z,81.00
2019-05-23T23:28:15.357Z,81.00
2019-05-23T23:30:44.609Z,81.20
2019-05-23T23:33:12.194Z,81.50
2019-05-23T23:35:39.913Z,81.40
2019-05-23T23:38:07.545Z,81.50
2019-05-23T23:40:35.118Z,81.80
2019-05-23T23:43:02.698Z,81.50
2019-05-23T23:45:48.427Z,81.60
2019-05-23T23:48:34.239Z,82.10
2019-05-23T23:51:23.238Z,82.40
2019-05-23T23:54:09.030Z,83.00
2019-05-23T23:56:54.753Z,83.10
2019-05-23T23:59:21.959Z,83.30
